sensor_id;sensor_type;location;lat;lon;timestamp;pressure;altitude;pressure_sealevel;temperature;humidity
61205;BME280;47068;55.780;37.520;2022-08-19T00:01:48;100464.53;;;23.84;42.10
61205;BME280;47068;55.780;37.520;2022-08-19T00:04:16;100474.25;;;23.92;41.91
61205;BME280;47068;55.780;37.520;2022-08-19T00:06:44;100476.13;;;23.91;42.46
61205;BME280;47068;55.780;37.520;2022-08-19T00:09:11;100475.53;;;23.89;42.61
61205;BME280;47068;55.780;37.520;2022-08-19T00:11:38;100473.00;;;23.76;42.65
61205;BME280;47068;55.780;37.520;2022-08-19T00:14:04;100486.56;;;23.65;43.49
61205;BME280;47068;55.780;37.520;2022-08-19T00:16:31;100485.72;;;23.46;43.99
61205;BME280;47068;55.780;37.520;2022-08-19T00:18:56;100482.84;;;23.59;43.51
61205;BME280;47068;55.780;37.520;2022-08-19T00:21:25;100484.81;;;23.70;44.01
61205;BME280;47068;55.780;37.520;2022-08-19T00:23:52;100481.25;;;23.70;43.74
61205;BME280;47068;55.780;37.520;2022-08-19T00:26:18;100479.72;;;23.74;43.84
61205;BME280;47068;55.780;37.520;2022-08-19T00:28:43;100487.66;;;23.75;43.60
61205;BME280;47068;55.780;37.520;2022-08-19T00:31:09;100477.94;;;23.68;44.05
61205;BME280;47068;55.780;37.520;2022-08-19T00:33:34;100486.31;;;23.66;44.43
61205;BME280;47068;55.780;37.520;2022-08-19T00:36:02;100485.25;;;23.67;44.26
61205;BME280;47068;55.780;37.520;2022-08-19T00:38:30;100489.50;;;23.63;44.56
61205;BME280;47068;55.780;37.520;2022-08-19T00:40:55;100486.63;;;23.58;44.47
61205;BME280;47068;55.780;37.520;2022-08-19T00:43:23;100480.75;;;23.43;44.84
61205;BME280;47068;55.780;37.520;2022-08-19T00:45:50;100489.00;;;23.36;45.12
61205;BME280;47068;55.780;37.520;2022-08-19T00:48:17;100496.06;;;23.37;45.17
61205;BME280;47068;55.780;37.520;2022-08-19T00:50:44;100496.97;;;23.31;45.34
61205;BME280;47068;55.780;37.520;2022-08-19T00:53:12;100495.84;;;23.21;45.29
61205;BME280;47068;55.780;37.520;2022-08-19T00:55:42;100508.75;;;23.25;45.40
61205;BME280;47068;55.780;37.520;2022-08-19T00:58:14;100508.81;;;23.18;45.57
61205;BME280;47068;55.780;37.520;2022-08-19T01:00:40;100509.13;;;23.10;45.76
61205;BME280;47068;55.780;37.520;2022-08-19T01:03:07;100505.56;;;23.10;45.35
61205;BME280;47068;55.780;37.520;2022-08-19T01:05:33;100502.78;;;22.98;45.59
61205;BME280;47068;55.780;37.520;2022-08-19T01:08:02;100515.75;;;22.96;45.80
61205;BME280;47068;55.780;37.520;2022-08-19T01:10:39;100519.34;;;22.90;45.96
61205;BME280;47068;55.780;37.520;2022-08-19T01:13:06;100521.91;;;22.85;45.96
61205;BME280;47068;55.780;37.520;2022-08-19T01:15:32;100532.03;;;22.96;45.56
61205;BME280;47068;55.780;37.520;2022-08-19T01:18:06;100532.78;;;23.03;45.52
61205;BME280;47068;55.780;37.520;2022-08-19T01:20:32;100536.41;;;22.97;45.61
61205;BME280;47068;55.780;37.520;2022-08-19T01:23:00;100539.56;;;22.94;45.61
61205;BME280;47068;55.780;37.520;2022-08-19T01:25:32;100523.88;;;22.78;45.64
61205;BME280;47068;55.780;37.520;2022-08-19T01:27:58;100529.28;;;22.78;45.58
61205;BME280;47068;55.780;37.520;2022-08-19T01:30:26;100531.72;;;22.86;45.44
61205;BME280;47068;55.780;37.520;2022-08-19T01:32:53;100511.34;;;22.77;45.26
61205;BME280;47068;55.780;37.520;2022-08-19T01:35:19;100537.59;;;22.83;45.23
61205;BME280;47068;55.780;37.520;2022-08-19T01:37:48;100513.03;;;22.71;45.13
61205;BME280;47068;55.780;37.520;2022-08-19T01:40:16;100512.28;;;22.64;45.07
61205;BME280;47068;55.780;37.520;2022-08-19T01:42:42;100534.75;;;22.71;45.47
61205;BME280;47068;55.780;37.520;2022-08-19T01:45:07;100533.91;;;22.71;45.24
61205;BME280;47068;55.780;37.520;2022-08-19T01:47:37;100509.84;;;22.56;45.16
61205;BME280;47068;55.780;37.520;2022-08-19T01:50:05;100535.41;;;22.73;44.91
61205;BME280;47068;55.780;37.520;2022-08-19T01:52:31;100523.06;;;22.71;45.10
61205;BME280;47068;55.780;37.520;2022-08-19T01:54:56;100533.91;;;22.71;44.99
61205;BME280;47068;55.780;37.520;2022-08-19T01:57:21;100532.09;;;22.65;44.98
61205;BME280;47068;55.780;37.520;2022-08-19T01:59:47;100529.72;;;22.25;45.47
61205;BME280;47068;55.780;37.520;2022-08-19T02:02:12;100523.84;;;22.28;45.77
61205;BME280;47068;55.780;37.520;2022-08-19T02:04:38;100522.13;;;22.34;45.60
61205;BME280;47068;55.780;37.520;2022-08-19T02:07:04;100528.06;;;22.49;45.32
61205;BME280;47068;55.780;37.520;2022-08-19T02:09:31;100519.69;;;22.51;45.10
61205;BME280;47068;55.780;37.520;2022-08-19T02:11:56;100523.81;;;22.60;45.09
61205;BME280;47068;55.780;37.520;2022-08-19T02:14:22;100522.13;;;22.59;44.86
61205;BME280;47068;55.780;37.520;2022-08-19T02:16:48;100527.34;;;22.60;44.93
61205;BME280;47068;55.780;37.520;2022-08-19T02:19:13;100525.47;;;22.61;45.23
61205;BME280;47068;55.780;37.520;2022-08-19T02:21:38;100504.53;;;22.68;44.84
61205;BME280;47068;55.780;37.520;2022-08-19T02:24:04;100507.59;;;22.78;44.79
61205;BME280;47068;55.780;37.520;2022-08-19T02:26:31;100501.38;;;22.71;44.62
61205;BME280;47068;55.780;37.520;2022-08-19T02:28:57;100536.38;;;22.79;44.52
61205;BME280;47068;55.780;37.520;2022-08-19T02:31:23;100547.66;;;22.76;44.51
61205;BME280;47068;55.780;37.520;2022-08-19T02:33:49;100551.44;;;22.75;44.54
61205;BME280;47068;55.780;37.520;2022-08-19T02:36:16;100546.97;;;22.56;44.90
61205;BME280;47068;55.780;37.520;2022-08-19T02:38:43;100564.91;;;22.57;45.10
61205;BME280;47068;55.780;37.520;2022-08-19T02:41:16;100568.47;;;22.32;45.75
61205;BME280;47068;55.780;37.520;2022-08-19T02:43:42;100540.03;;;22.10;45.98
61205;BME280;47068;55.780;37.520;2022-08-19T02:46:29;100556.78;;;22.32;45.78
61205;BME280;47068;55.780;37.520;2022-08-19T02:49:00;100558.03;;;22.29;46.11
61205;BME280;47068;55.780;37.520;2022-08-19T02:51:32;100556.56;;;22.33;46.05
61205;BME280;47068;55.780;37.520;2022-08-19T02:53:58;100552.41;;;22.56;45.70
61205;BME280;47068;55.780;37.520;2022-08-19T02:56:25;100544.09;;;22.51;45.13
61205;BME280;47068;55.780;37.520;2022-08-19T02:58:52;100553.63;;;22.60;45.40
61205;BME280;47068;55.780;37.520;2022-08-19T03:01:28;100555.69;;;22.64;45.14
61205;BME280;47068;55.780;37.520;2022-08-19T03:03:56;100560.72;;;22.61;45.65
61205;BME280;47068;55.780;37.520;2022-08-19T03:06:22;100548.69;;;22.50;45.36
61205;BME280;47068;55.780;37.520;2022-08-19T03:08:48;100558.88;;;22.55;45.64
61205;BME280;47068;55.780;37.520;2022-08-19T03:11:26;100563.97;;;22.45;45.48
61205;BME280;47068;55.780;37.520;2022-08-19T03:13:52;100555.44;;;22.41;45.99
61205;BME280;47068;55.780;37.520;2022-08-19T03:16:19;100568.31;;;22.52;45.67
61205;BME280;47068;55.780;37.520;2022-08-19T03:18:44;100551.41;;;22.25;46.77
61205;BME280;47068;55.780;37.520;2022-08-19T03:21:14;100570.25;;;22.45;45.84
61205;BME280;47068;55.780;37.520;2022-08-19T03:23:41;100562.72;;;22.47;45.71
61205;BME280;47068;55.780;37.520;2022-08-19T03:26:06;100566.78;;;22.31;46.22
61205;BME280;47068;55.780;37.520;2022-08-19T03:28:34;100570.13;;;22.33;46.22
61205;BME280;47068;55.780;37.520;2022-08-19T03:31:01;100566.34;;;22.34;45.95
61205;BME280;47068;55.780;37.520;2022-08-19T03:33:28;100561.69;;;22.42;45.94
61205;BME280;47068;55.780;37.520;2022-08-19T03:38:30;100566.28;;;22.41;46.01
61205;BME280;47068;55.780;37.520;2022-08-19T03:40:55;100568.56;;;22.44;46.23
61205;BME280;47068;55.780;37.520;2022-08-19T03:43:20;100572.13;;;22.45;46.04
61205;BME280;47068;55.780;37.520;2022-08-19T03:45:46;100568.16;;;22.40;46.27
61205;BME280;47068;55.780;37.520;2022-08-19T03:48:14;100569.94;;;22.28;46.56
61205;BME280;47068;55.780;37.520;2022-08-19T03:50:42;100566.34;;;22.34;46.45
61205;BME280;47068;55.780;37.520;2022-08-19T03:53:07;100573.81;;;22.39;46.28
61205;BME280;47068;55.780;37.520;2022-08-19T03:55:41;100569.25;;;22.39;46.22
61205;BME280;47068;55.780;37.520;2022-08-19T03:58:07;100567.53;;;22.45;46.24
61205;BME280;47068;55.780;37.520;2022-08-19T04:00:32;100566.97;;;22.36;46.40
61205;BME280;47068;55.780;37.520;2022-08-19T04:02:58;100563.63;;;22.34;46.33
61205;BME280;47068;55.780;37.520;2022-08-19T04:05:29;100569.72;;;22.30;46.46
61205;BME280;47068;55.780;37.520;2022-08-19T04:07:57;100563.34;;;22.43;46.58
61205;BME280;47068;55.780;37.520;2022-08-19T04:10:24;100562.94;;;22.46;46.50
61205;BME280;47068;55.780;37.520;2022-08-19T04:12:50;100564.03;;;22.63;46.18
61205;BME280;47068;55.780;37.520;2022-08-19T04:15:15;100566.84;;;22.81;45.50
61205;BME280;47068;55.780;37.520;2022-08-19T04:17:41;100566.66;;;22.76;45.64
61205;BME280;47068;55.780;37.520;2022-08-19T04:20:06;100572.69;;;22.78;45.61
61205;BME280;47068;55.780;37.520;2022-08-19T04:22:32;100575.34;;;22.60;46.21
61205;BME280;47068;55.780;37.520;2022-08-19T04:24:57;100577.69;;;22.81;45.64
61205;BME280;47068;55.780;37.520;2022-08-19T04:27:23;100577.28;;;22.77;45.72
61205;BME280;47068;55.780;37.520;2022-08-19T04:29:48;100587.03;;;22.60;45.72
61205;BME280;47068;55.780;37.520;2022-08-19T04:32:13;100581.88;;;22.77;45.71
61205;BME280;47068;55.780;37.520;2022-08-19T04:34:40;100591.47;;;22.80;45.80
61205;BME280;47068;55.780;37.520;2022-08-19T04:37:13;100587.31;;;22.77;45.49
61205;BME280;47068;55.780;37.520;2022-08-19T04:39:39;100593.56;;;22.77;45.71
61205;BME280;47068;55.780;37.520;2022-08-19T04:42:22;100594.06;;;22.93;45.40
61205;BME280;47068;55.780;37.520;2022-08-19T04:45:09;100590.72;;;22.66;46.06
61205;BME280;47068;55.780;37.520;2022-08-19T04:47:37;100588.97;;;22.78;45.62
61205;BME280;47068;55.780;37.520;2022-08-19T04:50:03;100581.41;;;22.87;45.38
61205;BME280;47068;55.780;37.520;2022-08-19T04:52:28;100582.34;;;23.17;44.97
61205;BME280;47068;55.780;37.520;2022-08-19T04:54:56;100589.41;;;23.00;45.05
61205;BME280;47068;55.780;37.520;2022-08-19T04:57:22;100592.38;;;23.16;45.11
61205;BME280;47068;55.780;37.520;2022-08-19T04:59:48;100599.84;;;22.78;45.38
61205;BME280;47068;55.780;37.520;2022-08-19T05:02:13;100594.19;;;22.80;45.77
61205;BME280;47068;55.780;37.520;2022-08-19T05:04:39;100599.81;;;23.03;44.99
61205;BME280;47068;55.780;37.520;2022-08-19T05:07:05;100598.22;;;22.95;45.35
61205;BME280;47068;55.780;37.520;2022-08-19T05:09:30;100602.56;;;23.21;44.69
61205;BME280;47068;55.780;37.520;2022-08-19T05:11:56;100589.13;;;23.51;44.31
61205;BME280;47068;55.780;37.520;2022-08-19T05:14:22;100583.38;;;23.77;43.99
61205;BME280;47068;55.780;37.520;2022-08-19T05:16:48;100585.22;;;23.95;43.13
61205;BME280;47068;55.780;37.520;2022-08-19T05:19:13;100583.38;;;23.77;43.48
61205;BME280;47068;55.780;37.520;2022-08-19T05:21:57;100582.31;;;24.26;42.61
61205;BME280;47068;55.780;37.520;2022-08-19T05:24:42;100573.69;;;24.41;42.60
61205;BME280;47068;55.780;37.520;2022-08-19T05:27:08;100579.28;;;24.46;42.02
61205;BME280;47068;55.780;37.520;2022-08-19T05:29:34;100580.69;;;24.19;42.74
61205;BME280;47068;55.780;37.520;2022-08-19T05:32:01;100586.31;;;24.36;42.60
61205;BME280;47068;55.780;37.520;2022-08-19T05:34:30;100581.69;;;24.24;42.65
61205;BME280;47068;55.780;37.520;2022-08-19T05:36:59;100592.59;;;24.36;42.23
61205;BME280;47068;55.780;37.520;2022-08-19T05:39:28;100582.31;;;24.38;42.62
61205;BME280;47068;55.780;37.520;2022-08-19T05:41:57;100578.34;;;24.64;42.35
61205;BME280;47068;55.780;37.520;2022-08-19T05:44:27;100581.78;;;24.83;41.99
61205;BME280;47068;55.780;37.520;2022-08-19T05:46:57;100586.94;;;25.02;41.67
61205;BME280;47068;55.780;37.520;2022-08-19T05:49:23;100583.50;;;25.07;41.74
61205;BME280;47068;55.780;37.520;2022-08-19T05:51:51;100589.28;;;25.22;41.32
61205;BME280;47068;55.780;37.520;2022-08-19T05:54:17;100587.72;;;24.80;41.71
61205;BME280;47068;55.780;37.520;2022-08-19T05:56:43;100593.25;;;24.61;43.07
61205;BME280;47068;55.780;37.520;2022-08-19T05:59:10;100592.88;;;24.58;42.69
61205;BME280;47068;55.780;37.520;2022-08-19T06:01:38;100593.81;;;24.40;42.85
61205;BME280;47068;55.780;37.520;2022-08-19T06:04:05;100593.06;;;24.33;43.31
61205;BME280;47068;55.780;37.520;2022-08-19T06:06:31;100581.84;;;24.11;43.64
61205;BME280;47068;55.780;37.520;2022-08-19T06:09:02;100579.13;;;24.11;43.62
61205;BME280;47068;55.780;37.520;2022-08-19T06:11:40;100583.22;;;24.02;44.04
61205;BME280;47068;55.780;37.520;2022-08-19T06:14:19;100598.00;;;23.58;45.01
61205;BME280;47068;55.780;37.520;2022-08-19T06:16:46;100594.00;;;23.42;45.66
61205;BME280;47068;55.780;37.520;2022-08-19T06:19:18;100598.44;;;23.91;44.67
61205;BME280;47068;55.780;37.520;2022-08-19T06:21:46;100606.91;;;24.31;43.93
61205;BME280;47068;55.780;37.520;2022-08-19T06:24:14;100602.06;;;24.98;42.46
61205;BME280;47068;55.780;37.520;2022-08-19T06:26:43;100604.88;;;25.38;41.57
61205;BME280;47068;55.780;37.520;2022-08-19T06:29:10;100608.34;;;25.22;42.00
61205;BME280;47068;55.780;37.520;2022-08-19T06:31:37;100604.06;;;25.49;41.27
61205;BME280;47068;55.780;37.520;2022-08-19T06:34:05;100588.31;;;25.40;41.29
61205;BME280;47068;55.780;37.520;2022-08-19T06:36:42;100599.69;;;26.28;39.61
61205;BME280;47068;55.780;37.520;2022-08-19T06:39:15;100580.47;;;26.52;38.82
61205;BME280;47068;55.780;37.520;2022-08-19T06:41:44;100602.31;;;26.52;38.84
61205;BME280;47068;55.780;37.520;2022-08-19T06:44:11;100597.69;;;26.69;39.01
61205;BME280;47068;55.780;37.520;2022-08-19T06:46:38;100595.19;;;26.22;39.42
61205;BME280;47068;55.780;37.520;2022-08-19T06:49:05;100596.94;;;25.72;40.49
61205;BME280;47068;55.780;37.520;2022-08-19T06:51:31;100581.88;;;25.69;40.48
61205;BME280;47068;55.780;37.520;2022-08-19T06:53:59;100591.97;;;25.69;40.88
61205;BME280;47068;55.780;37.520;2022-08-19T06:56:28;100585.25;;;25.25;41.89
61205;BME280;47068;55.780;37.520;2022-08-19T06:59:11;100592.00;;;25.34;42.00
61205;BME280;47068;55.780;37.520;2022-08-19T07:01:39;100583.72;;;24.94;42.59
61205;BME280;47068;55.780;37.520;2022-08-19T07:04:07;100593.94;;;25.10;42.27
61205;BME280;47068;55.780;37.520;2022-08-19T07:06:34;100594.72;;;24.99;42.17
61205;BME280;47068;55.780;37.520;2022-08-19T07:09:00;100595.09;;;24.91;42.57
61205;BME280;47068;55.780;37.520;2022-08-19T07:11:25;100583.09;;;24.68;43.02
61205;BME280;47068;55.780;37.520;2022-08-19T07:13:51;100597.06;;;24.72;43.38
61205;BME280;47068;55.780;37.520;2022-08-19T07:16:19;100582.28;;;24.80;42.78
61205;BME280;47068;55.780;37.520;2022-08-19T07:18:46;100565.66;;;24.46;43.81
61205;BME280;47068;55.780;37.520;2022-08-19T07:21:20;100593.84;;;24.63;42.88
61205;BME280;47068;55.780;37.520;2022-08-19T07:23:47;100587.59;;;24.75;43.21
61205;BME280;47068;55.780;37.520;2022-08-19T07:26:19;100587.78;;;25.03;42.76
61205;BME280;47068;55.780;37.520;2022-08-19T07:28:47;100595.22;;;24.96;41.41
61205;BME280;47068;55.780;37.520;2022-08-19T07:31:16;100599.94;;;24.89;40.54
61205;BME280;47068;55.780;37.520;2022-08-19T07:33:45;100597.22;;;25.00;40.50
61205;BME280;47068;55.780;37.520;2022-08-19T07:36:14;100601.06;;;25.86;38.85
61205;BME280;47068;55.780;37.520;2022-08-19T07:38:45;100595.38;;;26.61;37.16
61205;BME280;47068;55.780;37.520;2022-08-19T07:41:15;100598.03;;;25.99;37.89
61205;BME280;47068;55.780;37.520;2022-08-19T07:43:41;100593.25;;;26.35;37.35
61205;BME280;47068;55.780;37.520;2022-08-19T07:46:11;100604.97;;;26.97;36.71
61205;BME280;47068;55.780;37.520;2022-08-19T07:48:39;100594.81;;;27.91;34.97
61205;BME280;47068;55.780;37.520;2022-08-19T07:51:06;100601.59;;;27.89;34.77
61205;BME280;47068;55.780;37.520;2022-08-19T07:53:34;100616.44;;;28.14;34.35
61205;BME280;47068;55.780;37.520;2022-08-19T07:56:03;100600.41;;;28.82;32.21
61205;BME280;47068;55.780;37.520;2022-08-19T07:58:32;100604.88;;;29.87;30.37
61205;BME280;47068;55.780;37.520;2022-08-19T08:00:59;100602.03;;;29.67;30.13
61205;BME280;47068;55.780;37.520;2022-08-19T08:03:26;100601.88;;;28.94;30.91
61205;BME280;47068;55.780;37.520;2022-08-19T08:06:11;100599.25;;;29.62;30.54
61205;BME280;47068;55.780;37.520;2022-08-19T08:08:55;100623.63;;;27.99;32.64
61205;BME280;47068;55.780;37.520;2022-08-19T08:11:37;100618.97;;;27.39;34.00
61205;BME280;47068;55.780;37.520;2022-08-19T08:14:02;100617.13;;;27.61;33.96
61205;BME280;47068;55.780;37.520;2022-08-19T08:16:30;100625.63;;;26.76;35.08
61205;BME280;47068;55.780;37.520;2022-08-19T08:18:57;100626.47;;;26.60;35.64
61205;BME280;47068;55.780;37.520;2022-08-19T08:21:22;100615.59;;;26.32;36.44
61205;BME280;47068;55.780;37.520;2022-08-19T08:23:48;100625.50;;;26.38;36.88
61205;BME280;47068;55.780;37.520;2022-08-19T08:26:13;100621.81;;;25.75;37.66
61205;BME280;47068;55.780;37.520;2022-08-19T08:28:40;100623.00;;;25.68;38.42
61205;BME280;47068;55.780;37.520;2022-08-19T08:31:05;100631.47;;;25.95;38.12
61205;BME280;47068;55.780;37.520;2022-08-19T08:33:31;100622.25;;;25.84;38.44
61205;BME280;47068;55.780;37.520;2022-08-19T08:35:57;100643.84;;;26.25;37.93
61205;BME280;47068;55.780;37.520;2022-08-19T08:38:22;100640.69;;;26.79;36.88
61205;BME280;47068;55.780;37.520;2022-08-19T08:40:50;100645.16;;;26.85;36.74
61205;BME280;47068;55.780;37.520;2022-08-19T08:46:03;100630.91;;;26.49;37.33
61205;BME280;47068;55.780;37.520;2022-08-19T08:51:43;100612.31;;;26.46;36.93
61205;BME280;47068;55.780;37.520;2022-08-19T08:54:12;100613.69;;;26.49;36.40
61205;BME280;47068;55.780;37.520;2022-08-19T08:56:40;100610.56;;;26.40;35.84
61205;BME280;47068;55.780;37.520;2022-08-19T08:59:20;100601.16;;;26.64;35.67
61205;BME280;47068;55.780;37.520;2022-08-19T09:01:47;100622.75;;;26.66;35.87
61205;BME280;47068;55.780;37.520;2022-08-19T09:04:16;100619.34;;;26.59;36.39
61205;BME280;47068;55.780;37.520;2022-08-19T09:09:40;100620.50;;;26.80;36.44
61205;BME280;47068;55.780;37.520;2022-08-19T09:12:13;100623.91;;;26.87;36.05
61205;BME280;47068;55.780;37.520;2022-08-19T09:14:48;100616.22;;;26.67;36.35
61205;BME280;47068;55.780;37.520;2022-08-19T09:17:16;100563.19;;;26.18;36.61
61205;BME280;47068;55.780;37.520;2022-08-19T09:22:18;100615.00;;;26.30;37.04
61205;BME280;47068;55.780;37.520;2022-08-19T09:24:49;100600.31;;;26.19;37.13
61205;BME280;47068;55.780;37.520;2022-08-19T09:27:14;100619.97;;;26.49;36.97
61205;BME280;47068;55.780;37.520;2022-08-19T09:29:40;100618.97;;;26.39;36.65
61205;BME280;47068;55.780;37.520;2022-08-19T09:32:05;100625.69;;;26.19;37.06
61205;BME280;47068;55.780;37.520;2022-08-19T09:34:32;100622.69;;;26.33;37.17
61205;BME280;47068;55.780;37.520;2022-08-19T09:36:58;100622.94;;;26.31;36.88
61205;BME280;47068;55.780;37.520;2022-08-19T09:39:25;100633.38;;;26.34;36.59
61205;BME280;47068;55.780;37.520;2022-08-19T09:41:51;100636.13;;;26.51;36.70
61205;BME280;47068;55.780;37.520;2022-08-19T09:44:17;100614.38;;;26.56;36.27
61205;BME280;47068;55.780;37.520;2022-08-19T09:46:45;100634.09;;;26.75;35.82
61205;BME280;47068;55.780;37.520;2022-08-19T09:49:12;100639.94;;;26.66;35.36
61205;BME280;47068;55.780;37.520;2022-08-19T09:51:37;100644.53;;;26.94;34.42
61205;BME280;47068;55.780;37.520;2022-08-19T09:54:03;100641.03;;;26.82;34.47
61205;BME280;47068;55.780;37.520;2022-08-19T09:56:30;100639.09;;;26.94;33.69
61205;BME280;47068;55.780;37.520;2022-08-19T09:58:58;100607.16;;;26.95;33.20
61205;BME280;47068;55.780;37.520;2022-08-19T10:01:26;100648.19;;;27.17;32.99
61205;BME280;47068;55.780;37.520;2022-08-19T10:03:56;100641.28;;;26.81;33.34
61205;BME280;47068;55.780;37.520;2022-08-19T10:06:25;100632.03;;;26.98;32.51
61205;BME280;47068;55.780;37.520;2022-08-19T10:08:51;100623.47;;;26.78;32.50
61205;BME280;47068;55.780;37.520;2022-08-19T10:11:19;100639.03;;;26.61;32.32
61205;BME280;47068;55.780;37.520;2022-08-19T10:13:45;100635.06;;;26.52;32.16
61205;BME280;47068;55.780;37.520;2022-08-19T10:16:14;100564.19;;;26.12;31.73
61205;BME280;47068;55.780;37.520;2022-08-19T10:18:41;100645.28;;;26.45;32.53
61205;BME280;47068;55.780;37.520;2022-08-19T10:21:12;100634.47;;;26.50;33.20
61205;BME280;47068;55.780;37.520;2022-08-19T10:23:40;100631.72;;;26.50;33.36
61205;BME280;47068;55.780;37.520;2022-08-19T10:26:06;100639.03;;;26.61;34.18
61205;BME280;47068;55.780;37.520;2022-08-19T10:28:35;100637.19;;;26.50;34.24
61205;BME280;47068;55.780;37.520;2022-08-19T10:31:13;100633.91;;;26.48;34.44
61205;BME280;47068;55.780;37.520;2022-08-19T10:33:40;100633.97;;;26.53;33.70
61205;BME280;47068;55.780;37.520;2022-08-19T10:36:15;100637.31;;;26.55;34.05
61205;BME280;47068;55.780;37.520;2022-08-19T10:38:42;100638.72;;;26.74;33.72
61205;BME280;47068;55.780;37.520;2022-08-19T10:41:12;100643.25;;;26.85;33.05
61205;BME280;47068;55.780;37.520;2022-08-19T10:43:39;100642.78;;;26.88;31.48
61205;BME280;47068;55.780;37.520;2022-08-19T10:46:10;100637.47;;;26.65;30.02
61205;BME280;47068;55.780;37.520;2022-08-19T10:48:36;100630.69;;;26.67;29.03
61205;BME280;47068;55.780;37.520;2022-08-19T10:51:02;100637.31;;;26.88;28.68
61205;BME280;47068;55.780;37.520;2022-08-19T10:53:47;100643.03;;;26.87;25.32
61205;BME280;47068;55.780;37.520;2022-08-19T10:56:13;100643.84;;;26.71;25.39
61205;BME280;47068;55.780;37.520;2022-08-19T10:58:57;100648.97;;;26.67;23.92
61205;BME280;47068;55.780;37.520;2022-08-19T11:01:24;100644.00;;;26.64;21.72
61205;BME280;47068;55.780;37.520;2022-08-19T11:03:50;100631.72;;;26.50;22.20
61205;BME280;47068;55.780;37.520;2022-08-19T11:06:18;100653.91;;;26.70;22.24
61205;BME280;47068;55.780;37.520;2022-08-19T11:08:44;100647.22;;;26.61;22.96
61205;BME280;47068;55.780;37.520;2022-08-19T11:11:13;100651.38;;;26.80;24.25
61205;BME280;47068;55.780;37.520;2022-08-19T11:13:39;100664.31;;;26.56;24.35
61205;BME280;47068;55.780;37.520;2022-08-19T11:16:11;100648.09;;;26.50;23.50
61205;BME280;47068;55.780;37.520;2022-08-19T11:18:40;100642.25;;;26.41;25.23
61205;BME280;47068;55.780;37.520;2022-08-19T11:21:16;100646.22;;;26.50;25.30
61205;BME280;47068;55.780;37.520;2022-08-19T11:23:45;100633.31;;;26.46;24.66
61205;BME280;47068;55.780;37.520;2022-08-19T11:26:12;100628.25;;;26.38;24.23
61205;BME280;47068;55.780;37.520;2022-08-19T11:28:38;100637.78;;;26.52;24.62
61205;BME280;47068;55.780;37.520;2022-08-19T11:31:04;100643.25;;;26.52;24.80
61205;BME280;47068;55.780;37.520;2022-08-19T11:33:30;100626.47;;;26.60;24.92
61205;BME280;47068;55.780;37.520;2022-08-19T11:35:59;100618.25;;;26.43;23.79
61205;BME280;47068;55.780;37.520;2022-08-19T11:38:27;100626.25;;;26.33;23.34
61205;BME280;47068;55.780;37.520;2022-08-19T11:40:58;100640.25;;;26.53;23.75
61205;BME280;47068;55.780;37.520;2022-08-19T11:43:24;100635.88;;;26.52;23.73
61205;BME280;47068;55.780;37.520;2022-08-19T11:45:52;100630.38;;;26.36;24.30
61205;BME280;47068;55.780;37.520;2022-08-19T11:48:18;100634.72;;;26.48;24.92
61205;BME280;47068;55.780;37.520;2022-08-19T11:50:50;100643.91;;;26.59;24.79
61205;BME280;47068;55.780;37.520;2022-08-19T11:53:17;100640.59;;;26.57;24.98
61205;BME280;47068;55.780;37.520;2022-08-19T11:55:44;100632.25;;;26.63;25.18
61205;BME280;47068;55.780;37.520;2022-08-19T11:58:11;100640.66;;;26.45;25.73
61205;BME280;47068;55.780;37.520;2022-08-19T12:00:38;100631.50;;;26.51;26.37
61205;BME280;47068;55.780;37.520;2022-08-19T12:03:03;100634.41;;;26.61;26.66
61205;BME280;47068;55.780;37.520;2022-08-19T12:05:29;100643.38;;;26.45;27.08
61205;BME280;47068;55.780;37.520;2022-08-19T12:07:54;100634.97;;;26.47;27.55
61205;BME280;47068;55.780;37.520;2022-08-19T12:10:21;100643.47;;;26.34;28.05
61205;BME280;47068;55.780;37.520;2022-08-19T12:12:48;100636.44;;;26.38;27.97
61205;BME280;47068;55.780;37.520;2022-08-19T12:15:13;100632.50;;;26.62;28.05
61205;BME280;47068;55.780;37.520;2022-08-19T12:17:40;100643.34;;;26.74;27.93
61205;BME280;47068;55.780;37.520;2022-08-19T12:20:08;100627.63;;;26.64;28.89
61205;BME280;47068;55.780;37.520;2022-08-19T12:22:36;100627.28;;;26.60;29.46
61205;BME280;47068;55.780;37.520;2022-08-19T12:25:02;100640.38;;;26.75;29.19
61205;BME280;47068;55.780;37.520;2022-08-19T12:27:28;100633.69;;;26.38;29.84
61205;BME280;47068;55.780;37.520;2022-08-19T12:29:53;100597.00;;;26.17;30.45
61205;BME280;47068;55.780;37.520;2022-08-19T12:32:18;100608.91;;;26.39;30.82
61205;BME280;47068;55.780;37.520;2022-08-19T12:34:46;100571.84;;;26.15;31.25
61205;BME280;47068;55.780;37.520;2022-08-19T12:37:12;100621.81;;;26.44;31.02
61205;BME280;47068;55.780;37.520;2022-08-19T12:39:40;100618.97;;;26.39;31.39
61205;BME280;47068;55.780;37.520;2022-08-19T12:42:07;100620.25;;;26.19;31.38
61205;BME280;47068;55.780;37.520;2022-08-19T12:44:34;100621.63;;;26.34;31.65
61205;BME280;47068;55.780;37.520;2022-08-19T12:47:00;100619.56;;;26.41;31.78
61205;BME280;47068;55.780;37.520;2022-08-19T12:49:30;100614.59;;;26.38;32.40
61205;BME280;47068;55.780;37.520;2022-08-19T12:52:01;100634.31;;;26.28;32.15
61205;BME280;47068;55.780;37.520;2022-08-19T12:54:27;100614.91;;;26.24;32.51
61205;BME280;47068;55.780;37.520;2022-08-19T12:56:54;100616.31;;;26.15;32.62
61205;BME280;47068;55.780;37.520;2022-08-19T12:59:19;100623.53;;;26.21;32.42